• Join FlightAware (Why Join?)
  • Login
  • US Flag 
08:45AM EDT


 

Airport Tracker/Info


-or-


 

Live Flight TrackerFlight Track Log ✈ N110GW ✈ 13-Mar-2014 ✈ KLUK - KAPF

Flight Track Log - Related Links

Times and Time Zones

All times are in EDT time to prevent confusion due to time zone crossing. See the N110GW flight status page for this flight to view local times or setup timezone preferences in your user account.

Time Position Orientation Groundspeed Altitude Reporting Facility
EDT Latitude Longitude Course Direction KTS MPH feet Rate Location/Type
01:04PM 39.0500 -84.4333 201° Southwest 161 185 2,800  Level Cincinnati TRACON
01:05PM 39.0000 -84.4667 207° Southwest 167 192 4,400 1,740 Climbing Cincinnati TRACON
01:06PM 38.9500 -84.4833 195° South 163 188 6,300 1,620 Climbing Cincinnati TRACON
01:07PM 38.8972 -84.5006 194° South 165 190 8,400 1,500 Climbing Indianapolis Center
01:08PM 38.8450 -84.5136 191° South 185 213 10,000 1,500 Climbing Indianapolis Center
01:09PM 38.7867 -84.5156 181° South 203 234 11,600 960 Climbing Indianapolis Center
01:10PM 38.7097 -84.5244 185° South 229 264 12,100 180 Climbing Indianapolis Center
01:11PM 38.6378 -84.5325 185° South 276 318 12,000 360 Descending Indianapolis Center
01:12PM 38.5417 -84.5461 186° South 290 334 12,900 1,440 Climbing Indianapolis Center
01:13PM 38.4703 -84.5475 181° South 275 316 15,000 1,560 Climbing Indianapolis Center
01:14PM 38.4117 -84.5367 172° South 224 258 16,200 1,140 Climbing Indianapolis Center
01:15PM 38.3436 -84.5211 170° South 239 275 17,400 1,080 Climbing Indianapolis Center
01:16PM 38.2756 -84.5025 168° South 245 282 18,500 1,020 Climbing Indianapolis Center
01:17PM 38.2083 -84.4847 168° South 246 283 19,600 1,080 Climbing Indianapolis Center
01:18PM 38.1258 -84.4617 168° South 255 293 20,800 1,020 Climbing Indianapolis Center
01:19PM 38.0536 -84.4419 168° South 262 302 21,800 900 Climbing Indianapolis Center
01:20PM 37.9803 -84.4231 169° South 266 306 22,700 840 Climbing Indianapolis Center
01:22PM 37.9053 -84.4033 168° South 269 310 23,600 780 Climbing Indianapolis Center
01:23PM 37.8289 -84.3825 168° South 276 318 24,400 660 Climbing Indianapolis Center
01:24PM 37.7364 -84.3594 169° South 285 328 25,000 240 Climbing Indianapolis Center
01:25PM 37.6500 -84.3364 168° South 310 357 25,000  Level Indianapolis Center
01:26PM 37.5581 -84.3131 169° South 330 380 25,000  Level Indianapolis Center
01:27PM 37.4625 -84.2881 168° South 345 397 25,000  Level Indianapolis Center
01:28PM 37.3667 -84.2639 169° South 349 402 25,000  Level Indianapolis Center
01:29PM 37.2553 -84.2356 169° South 349 402 25,000  Level Indianapolis Center
01:30PM 37.1606 -84.2111 168° South 349 402 25,000  Level Indianapolis Center
01:31PM 37.0661 -84.1869 168° South 349 402 25,000  Level Indianapolis Center
01:32PM 36.9711 -84.1619 168° South 349 402 25,000  Level Indianapolis Center
01:33PM 36.8767 -84.1386 169° South 348 400 25,000  Level Indianapolis Center
01:34PM 36.7678 -84.1114 169° South 348 400 25,000  Level Indianapolis Center
01:35PM 36.6728 -84.0872 168° South 348 400 25,000  Level Indianapolis Center
01:36PM 36.5792 -84.0847 179° South 343 395 25,000  Level Indianapolis Center
01:37PM 36.4811 -84.0897 182° South 333 383 25,000  Level Indianapolis Center
01:38PM 36.3903 -84.0953 183° South 331 381 25,000  Level Indianapolis Center
01:39PM 36.2989 -84.0997 182° South 330 380 25,000  Level Indianapolis Center
01:40PM 36.2069 -84.1042 182° South 330 380 25,000  Level Indianapolis Center
01:41PM 36.1172 -84.1089 182° South 327 376 25,000  Level Indianapolis Center
01:42PM 36.0267 -84.1131 182° South 327 376 25,000  Level Indianapolis Center
01:43PM 35.9169 -84.1183 182° South 327 376 25,000  Level Indianapolis Center
01:44PM 35.8267 -84.1225 182° South 326 375 25,000  Level Indianapolis Center
01:45PM 35.7356 -84.1286 183° South 326 375 25,000  Level Indianapolis Center
01:46PM 35.6453 -84.1328 182° South 326 375 25,000  Level Indianapolis Center
01:47PM 35.5389 -84.1408 184° South 329 379 25,000  Level Atlanta Center
01:48PM 35.4511 -84.1458 183° South 329 379 25,000  Level Atlanta Center
01:49PM 35.3614 -84.1508 183° South 329 379 25,000  Level Atlanta Center
01:50PM 35.2717 -84.1533 181° South 329 379 25,000  Level Atlanta Center
01:51PM 35.1842 -84.1583 183° South 324 373 25,000  Level Atlanta Center
01:52PM 35.1069 -84.1631 183° South 324 373 25,000  Level Atlanta Center
01:53PM 35.0192 -84.1681 183° South 324 373 25,000  Level Atlanta Center
01:54PM 34.9317 -84.1706 181° South 324 373 25,000  Level Atlanta Center
01:55PM 34.8439 -84.1756 183° South 324 373 25,000  Level Atlanta Center
01:56PM 34.7583 -84.1803 183° South 319 367 25,000  Level Atlanta Center
01:57PM 34.6708 -84.1828 181° South 319 367 25,000  Level Atlanta Center
01:58PM 34.5769 -84.1825 180° South 307 353 25,000  Level Atlanta Center
01:59PM 34.4933 -84.1900 184° South 307 353 25,000  Level Atlanta Center
02:00PM 34.4161 -84.1922 181° South 307 353 25,000  Level Atlanta Center
02:01PM 34.3306 -84.1972 183° South 312 359 25,000  Level Atlanta Center
02:02PM 34.2450 -84.2022 183° South 312 359 25,000  Level Atlanta Center
02:03PM 34.1594 -84.2044 181° South 305 351 25,000  Level Atlanta Center
02:04PM 34.0633 -84.2119 184° South 314 361 25,000  Level Atlanta Center
02:05PM 33.9800 -84.2167 183° South 314 361 25,000  Level Atlanta Center
02:06PM 33.8922 -84.2214 183° South 309 356 25,000  Level Atlanta Center
02:07PM 33.8067 -84.2239 181° South 309 356 25,000  Level Atlanta Center
02:08PM 33.7211 -84.2286 183° South 312 359 25,000  Level Atlanta Center
02:09PM 33.6375 -84.2333 183° South 312 359 25,000  Level Atlanta Center
02:10PM 33.5500 -84.2383 183° South 312 359 25,000  Level Atlanta Center
02:11PM 33.4747 -84.2431 183° South 306 352 25,000  Level Atlanta Center
02:12PM 33.3892 -84.2478 183° South 312 359 25,000  Level Atlanta Center
02:13PM 33.3014 -84.2500 181° South 312 359 25,000  Level Atlanta Center
02:14PM 33.2158 -84.2550 183° South 307 353 25,000  Level Atlanta Center
02:15PM 33.1325 -84.2619 184° South 307 353 25,000  Level Atlanta Center
02:16PM 33.0467 -84.2644 181° South 307 353 25,000  Level Atlanta Center
02:17PM 32.9550 -84.2717 184° South 307 353 25,000  Level Atlanta Center
02:18PM 32.8714 -84.2739 181° South 307 353 25,000  Level Atlanta Center
02:19PM 32.8025 -84.2761 182° South 307 353 25,000  Level Atlanta Center
02:20PM 32.7128 -84.2758 180° South 307 353 25,000  Level Atlanta Center
02:21PM 32.6292 -84.2831 184° South 307 353 25,000  Level Atlanta Center
02:22PM 32.5458 -84.2853 181° South 307 353 25,000  Level Atlanta Center
02:23PM 32.4664 -84.2875 181° South 307 353 25,000  Level Atlanta Center
02:24PM 32.3850 -84.2922 183° South 302 348 25,000  Level Atlanta Center
02:25PM 32.3058 -84.2969 183° South 297 342 25,000  Level Atlanta Center
02:26PM 32.2264 -84.3017 183° South 292 336 25,000  Level Atlanta Center
02:27PM 32.1450 -84.3039 181° South 292 336 25,000  Level Atlanta Center
02:28PM 32.0625 -84.3047 180° South 292 336 25,000  Level Jacksonville Center
02:29PM 31.9833 -84.3108 184° South 292 336 25,000  Level Jacksonville Center
02:30PM 31.9017 -84.3119 181° South 292 336 25,000  Level Jacksonville Center
02:31PM 31.8244 -84.3156 182° South 292 336 25,000  Level Jacksonville Center
02:32PM 31.7450 -84.3217 184° South 292 336 25,000  Level Jacksonville Center
02:33PM 31.6678 -84.3231 181° South 292 336 25,000  Level Jacksonville Center
02:34PM 31.5906 -84.3267 182° South 287 330 25,000  Level Jacksonville Center
02:35PM 31.5153 -84.3303 182° South 287 330 25,000  Level Jacksonville Center
02:36PM 31.4342 -84.3097 168° South 288 331 25,000  Level Jacksonville Center
02:37PM 31.3531 -84.2889 168° South 294 338 25,000  Level Jacksonville Center
02:38PM 31.2800 -84.2686 167° South 294 338 25,000  Level Jacksonville Center
02:39PM 31.1989 -84.2478 168° South 299 344 25,000  Level Jacksonville Center
02:40PM 31.1197 -84.2272 167° South 294 338 25,000  Level Jacksonville Center
02:41PM 31.0406 -84.2067 167° South 294 338 25,000  Level Jacksonville Center
02:42PM 30.9614 -84.1839 166° South 294 338 25,000  Level Jacksonville Center
02:43PM 30.8803 -84.1658 169° South 299 344 25,000  Level Jacksonville Center
02:44PM 30.7992 -84.1431 166° South 299 344 25,000  Level Jacksonville Center
02:45PM 30.7178 -84.1250 169° South 299 344 25,000  Level Jacksonville Center
02:46PM 30.6344 -84.1022 167° South 299 344 25,000  Level Jacksonville Center
02:47PM 30.5553 -84.0819 168° South 299 344 25,000  Level Jacksonville Center
02:48PM 30.4700 -84.0614 168° South 293 337 25,000  Level Jacksonville Center
02:49PM 30.3886 -84.0414 168° South 293 337 25,000  Level Jacksonville Center
02:50PM 30.3094 -84.0186 166° South 298 343 25,000  Level Jacksonville Center
02:51PM 30.2283 -83.9983 168° South 298 343 25,000  Level Jacksonville Center
02:52PM 30.1492 -83.9783 168° South 298 343 25,000  Level Jacksonville Center
02:53PM 30.0700 -83.9583 168° South 298 343 25,000  Level Jacksonville Center
02:54PM 29.9908 -83.9381 167° South 298 343 25,000  Level Jacksonville Center
02:55PM 29.9117 -83.9181 168° South 298 343 25,000  Level Jacksonville Center
02:56PM 29.8344 -83.9006 169° South 298 343 25,000  Level Jacksonville Center
02:57PM 29.7575 -83.8592 155° Southeast 298 343 25,000  Level Jacksonville Center
02:58PM 29.6808 -83.8081 150° Southeast 309 356 25,000  Level Jacksonville Center
02:59PM 29.6122 -83.7622 150° Southeast 314 361 25,000  Level Jacksonville Center
03:00PM 29.5372 -83.7136 151° Southeast 314 361 25,000  Level Jacksonville Center
03:01PM 29.4625 -83.6653 151° Southeast 314 361 25,000  Level Jacksonville Center
03:02PM 29.3856 -83.6172 151° Southeast 314 361 25,000  Level Jacksonville Center
03:03PM 29.3106 -83.5667 150° Southeast 309 356 25,000  Level Jacksonville Center
03:04PM 29.2336 -83.5161 150° Southeast 309 356 25,000  Level Jacksonville Center
03:05PM 29.1567 -83.4681 151° Southeast 309 356 25,000  Level Jacksonville Center
03:06PM 29.0797 -83.4200 151° Southeast 309 356 25,000  Level Jacksonville Center
03:07PM 29.0006 -83.3722 152° Southeast 314 361 25,000  Level Jacksonville Center
03:08PM 28.9233 -83.3361 158° South 309 356 25,000  Level Jacksonville Center
03:09PM 28.8483 -83.3406 183° South 280 322 25,000  Level Jacksonville Center
03:10PM 28.7753 -83.3450 183° South 272 313 25,000  Level Jacksonville Center
03:11PM 28.7022 -83.3469 181° South 272 313 25,000  Level Jacksonville Center
03:12PM 28.6269 -83.3467 180° South 272 313 25,000  Level Jacksonville Center
03:14PM 28.4936 -83.3553 183° South 274 315 25,000  Level Miami Center
03:15PM 28.4169 -83.3392 170° South 274 315 25,000  Level Miami Center
03:16PM 28.3256 -83.2867 153° Southeast 282 325 25,000  Level Miami Center
03:17PM 28.2483 -83.2447 154° Southeast 298 343 25,000  Level Miami Center
03:18PM 28.1689 -83.2000 154° Southeast 311 358 25,000  Level Miami Center
03:19PM 28.0936 -83.1606 155° Southeast 311 358 25,000  Level Miami Center
03:20PM 28.0181 -83.1189 154° Southeast 311 358 25,000  Level Miami Center
03:21PM 27.9408 -83.0769 154° Southeast 311 358 25,000  Level Miami Center
03:22PM 27.8675 -83.0356 153° Southeast 311 358 25,000 -60 Level Miami Center
03:23PM 27.7900 -82.9936 154° Southeast 311 358 24,900 -360 Descending Miami Center
03:24PM 27.7103 -82.9519 155° Southeast 317 365 24,300 -540 Descending Miami Center
03:25PM 27.6350 -82.9081 153° Southeast 317 365 23,900 -600 Descending Miami Center
03:26PM 27.5492 -82.8636 155° Southeast 312 359 23,200 -660 Descending Miami Center
03:27PM 27.4819 -82.8250 153° Southeast 312 359 22,600 -660 Descending Miami Center
03:28PM 27.4025 -82.7836 155° Southeast 312 359 21,900 -1,020 Descending Miami Center
03:29PM 27.3144 -82.7369 155° Southeast 321 369 20,600 -1,200 Descending Miami Center
03:30PM 27.2411 -82.6983 155° Southeast 312 359 19,500 -1,140 Descending Miami Center
03:31PM 27.1633 -82.6569 155° Southeast 317 365 18,400 -1,140 Descending Miami Center
03:32PM 27.0858 -82.6158 155° Southeast 312 359 17,300 -1,200 Descending Miami Center
03:33PM 27.0039 -82.5722 155° Southeast 317 365 16,000 -1,380 Descending Miami Center
03:34PM 26.9203 -82.5261 154° Southeast 311 358 14,600 -1,260 Descending Miami Center
03:35PM 26.8425 -82.4875 156° South 311 358 13,500 -1,320 Descending Miami Center
03:36PM 26.7750 -82.4472 152° Southeast 316 364 12,000 -1,320 Descending Miami Center
03:37PM 26.6994 -82.4086 155° Southeast 310 357 10,900 -1,140 Descending Miami Center
03:38PM 26.6258 -82.3656 152° Southeast 304 350 9,800 -960 Descending Miami Center
03:39PM 26.5608 -82.3208 148° Southeast 286 329 9,000 -1,080 Descending Miami Center
03:40PM 26.4958 -82.2714 146° Southeast 286 329 7,700 -1,200 Descending Miami Center
03:41PM 26.4308 -82.2244 147° Southeast 281 323 6,600 -1,200 Descending Miami Center
03:42PM 26.3617 -82.1728 146° Southeast 276 318 5,400 -1,020 Descending Miami Center
03:43PM 26.2986 -82.1281 148° Southeast 276 318 4,600 -840 Descending Miami Center
03:45PM 26.2288 -82.0747 149° Southeast  Level FlightAware Approximate
03:52PM 26.1524 -81.7756 66° East  Level Estimated
03:53PM 26.1524 -81.7756 66° East  Level Estimated
03:54PM 26.1524 -81.7756 66° East  Level Estimated
03:55PM 26.1524 -81.7756 66° East  Level Estimated
03:56PM 26.1524 -81.7756 66° East  Level Estimated
03:57PM 26.1524 -81.7756 66° East  Level Estimated
03:58PM 26.1524 -81.7756 66° East  Level Estimated
03:59PM 26.1524 -81.7756 66° East  Level Estimated